Time;durP1;ratioP1;P1;durP2;ratioP2;P2;SDS_P1;SDS_P2;PMS_P1;PMS_P2;Temp;Humidity;BMP_temperature;BMP_pressure;BME280_temperature;BME280_humidity;BME280_pressure;Samples;Min_cycle;Max_cycle;Signal;HPM_P1;HPM_P2
2023/03/06 00:02:15;;;;;;;;;;;9.90;99.90;;;;;;5014204;28;19916;-69
2023/03/06 00:04:41;;;;;;;;;;;9.90;99.90;;;;;;5014262;28;19909;-68
2023/03/06 00:07:06;;;;;;;;;;;10.00;99.90;;;;;;5013225;28;19984;-69
2023/03/06 00:09:32;;;;;;;;;;;10.00;99.90;;;;;;5013583;28;19952;-69
2023/03/06 00:11:58;;;;;;;;;;;9.90;99.90;;;;;;5013832;28;19916;-69
2023/03/06 00:14:23;;;;;;;;;;;9.90;99.90;;;;;;5013348;28;19914;-69
2023/03/06 00:16:52;;;;;;;;;;;9.80;99.90;;;;;;5013719;28;19909;-66
2023/03/06 00:19:18;;;;;;;;;;;9.90;99.90;;;;;;5013357;28;19970;-69
2023/03/06 00:21:43;;;;;;;;;;;9.90;99.90;;;;;;5013782;28;19909;-69
2023/03/06 00:24:09;;;;;;;;;;;9.80;99.90;;;;;;5013177;28;20092;-69
2023/03/06 00:26:35;;;;;;;;;;;9.90;99.90;;;;;;5013682;28;19913;-69
2023/03/06 00:29:01;;;;;;;;;;;9.90;99.90;;;;;;5012485;28;19948;-69
2023/03/06 00:31:26;;;;;;;;;;;9.90;99.90;;;;;;5014260;28;19936;-69
2023/03/06 00:33:52;;;;;;;;;;;9.90;99.90;;;;;;5013975;28;19909;-69
2023/03/06 00:36:18;;;;;;;;;;;10.00;99.90;;;;;;5013906;28;19917;-69
2023/03/06 00:38:43;;;;;;;;;;;10.00;99.90;;;;;;5013414;28;19909;-69
2023/03/06 00:41:10;;;;;;;;;;;9.90;99.90;;;;;;5012387;28;20071;-69
2023/03/06 00:43:36;;;;;;;;;;;9.90;99.90;;;;;;5014060;28;19909;-69
2023/03/06 00:46:02;;;;;;;;;;;9.70;99.90;;;;;;5013702;28;19914;-69
2023/03/06 00:48:28;;;;;;;;;;;9.70;99.90;;;;;;5014096;28;20394;-70
2023/03/06 00:50:54;;;;;;;;;;;9.60;99.90;;;;;;5014098;28;19910;-69
2023/03/06 00:53:19;;;;;;;;;;;9.60;99.90;;;;;;5013592;28;19913;-69
2023/03/06 00:55:45;;;;;;;;;;;9.70;99.90;;;;;;5013446;28;19914;-72
2023/03/06 00:58:11;;;;;;;;;;;9.70;99.90;;;;;;5013496;28;19952;-69
2023/03/06 01:00:37;;;;;;;;;;;9.70;99.90;;;;;;5013801;28;19917;-69
2023/03/06 01:03:03;;;;;;;;;;;9.70;99.90;;;;;;5013442;28;19916;-69
2023/03/06 01:05:29;;;;;;;;;;;9.70;99.90;;;;;;5012440;28;19914;-69
2023/03/06 01:07:55;;;;;;;;;;;9.60;99.90;;;;;;5013007;28;19909;-69
2023/03/06 01:10:21;;;;;;;;;;;9.60;99.90;;;;;;5013216;28;20431;-69
2023/03/06 01:12:46;;;;;;;;;;;9.70;99.90;;;;;;5013253;28;19921;-68
2023/03/06 01:15:12;;;;;;;;;;;9.70;99.90;;;;;;5013466;28;19956;-68
2023/03/06 01:17:38;;;;;;;;;;;9.70;99.90;;;;;;5012863;28;19920;-69
2023/03/06 01:20:04;;;;;;;;;;;9.70;99.90;;;;;;5013752;28;19917;-70
2023/03/06 01:22:30;;;;;;;;;;;9.80;99.90;;;;;;5013315;28;19920;-69
2023/03/06 01:24:56;;;;;;;;;;;9.80;99.90;;;;;;5013246;28;19913;-69
2023/03/06 01:27:22;;;;;;;;;;;9.70;99.90;;;;;;5015037;28;19920;-69
2023/03/06 01:29:47;;;;;;;;;;;9.90;99.90;;;;;;5017751;28;19909;-69
2023/03/06 01:32:13;;;;;;;;;;;9.90;99.90;;;;;;5016967;28;20371;-68
2023/03/06 01:34:39;;;;;;;;;;;9.90;99.90;;;;;;5016768;28;19945;-69
2023/03/06 01:37:04;;;;;;;;;;;9.80;99.90;;;;;;5017105;28;19964;-69
2023/03/06 01:39:30;;;;;;;;;;;9.90;99.90;;;;;;5017286;28;19920;-69
2023/03/06 01:41:56;;;;;;;;;;;9.80;99.90;;;;;;5017107;28;19918;-69
2023/03/06 01:44:21;;;;;;;;;;;9.80;99.90;;;;;;5016496;28;19959;-70
2023/03/06 01:46:49;;;;;;;;;;;9.80;99.90;;;;;;5016128;28;19920;-69
2023/03/06 01:49:18;;;;;;;;;;;9.80;99.90;;;;;;5016769;28;20371;-69
2023/03/06 01:51:59;;;;;;;;;;;9.80;99.90;;;;;;5017146;28;19922;-69
2023/03/06 01:54:33;;;;;;;;;;;9.70;99.90;;;;;;5016974;28;20390;-70
2023/03/06 01:57:01;;;;;;;;;;;9.70;99.90;;;;;;5017041;28;19910;-69
2023/03/06 01:59:28;;;;;;;;;;;9.70;99.90;;;;;;5017199;28;19914;-68
2023/03/06 02:01:54;;;;;;;;;;;9.70;99.90;;;;;;5017025;28;19915;-69
2023/03/06 02:04:20;;;;;;;;;;;9.80;99.90;;;;;;5016680;28;20478;-69
2023/03/06 02:06:46;;;;;;;;;;;9.90;99.90;;;;;;5016682;28;20019;-69
2023/03/06 02:09:12;;;;;;;;;;;9.90;99.90;;;;;;5016368;28;19913;-69
2023/03/06 02:11:42;;;;;;;;;;;9.90;99.90;;;;;;5016502;28;19973;-69
2023/03/06 02:14:09;;;;;;;;;;;9.80;99.90;;;;;;5016567;28;20295;-69
2023/03/06 02:16:35;;;;;;;;;;;9.80;99.90;;;;;;5016694;28;20013;-70
2023/03/06 02:19:02;;;;;;;;;;;9.80;99.90;;;;;;5016305;28;20327;-70
2023/03/06 02:21:30;;;;;;;;;;;9.80;99.90;;;;;;5015040;28;19910;-68
2023/03/06 02:24:08;;;;;;;;;;;9.90;99.90;;;;;;5016088;28;19913;-69
2023/03/06 02:26:35;;;;;;;;;;;9.80;99.90;;;;;;5016649;28;19913;-72
2023/03/06 02:29:02;;;;;;;;;;;9.80;99.90;;;;;;5015997;28;19963;-69
2023/03/06 02:31:29;;;;;;;;;;;9.70;99.90;;;;;;5016221;28;19909;-69
2023/03/06 02:34:27;;;;;;;;;;;9.70;99.90;;;;;;5014710;28;19909;-68
2023/03/06 02:37:03;;;;;;;;;;;9.70;99.90;;;;;;5016132;28;20008;-69
2023/03/06 02:39:32;;;;;;;;;;;9.70;99.90;;;;;;5016058;28;19933;-69
2023/03/06 02:41:58;;;;;;;;;;;9.60;99.90;;;;;;5016035;28;19972;-70
2023/03/06 02:44:25;;;;;;;;;;;9.70;99.90;;;;;;5016193;28;19909;-69
2023/03/06 02:46:51;;;;;;;;;;;9.70;99.90;;;;;;5016454;28;19914;-72
2023/03/06 02:49:16;;;;;;;;;;;9.80;99.90;;;;;;5016376;28;19920;-67
2023/03/06 02:51:42;;;;;;;;;;;9.80;99.90;;;;;;5016621;28;19949;-68
2023/03/06 02:54:08;;;;;;;;;;;9.70;99.90;;;;;;5015982;28;19983;-69
2023/03/06 02:56:33;;;;;;;;;;;9.80;99.90;;;;;;5016406;28;19914;-69
2023/03/06 02:58:59;;;;;;;;;;;9.90;99.90;;;;;;5015538;28;19909;-68
2023/03/06 03:01:24;;;;;;;;;;;9.90;99.90;;;;;;5014741;28;19910;-67
2023/03/06 03:03:50;;;;;;;;;;;9.80;99.90;;;;;;5009602;28;19977;-67
2023/03/06 03:06:16;;;;;;;;;;;9.90;99.90;;;;;;5011542;28;19914;-66
2023/03/06 03:08:42;;;;;;;;;;;9.80;99.90;;;;;;5015234;28;19916;-69
2023/03/06 03:11:08;;;;;;;;;;;9.90;99.90;;;;;;5015566;28;20008;-69
2023/03/06 03:13:33;;;;;;;;;;;9.90;99.90;;;;;;5015201;28;20363;-70
2023/03/06 03:16:03;;;;;;;;;;;9.90;99.90;;;;;;5015863;28;19937;-67
2023/03/06 03:18:29;;;;;;;;;;;9.90;99.90;;;;;;5015042;28;19921;-68
2023/03/06 03:20:55;;;;;;;;;;;9.90;99.90;;;;;;5015411;28;19932;-67
2023/03/06 03:23:21;;;;;;;;;;;9.90;99.90;;;;;;5015144;28;19909;-69
2023/03/06 03:25:46;;;;;;;;;;;9.90;99.90;;;;;;5015043;28;19917;-70
2023/03/06 03:28:12;;;;;;;;;;;9.90;99.90;;;;;;5014607;28;19921;-67
2023/03/06 03:30:38;;;;;;;;;;;9.90;99.90;;;;;;5015361;28;19944;-68
2023/03/06 03:33:04;;;;;;;;;;;9.90;99.90;;;;;;5014764;28;19917;-69
2023/03/06 03:35:30;;;;;;;;;;;9.90;99.90;;;;;;5015260;28;19925;-69
2023/03/06 03:37:59;;;;;;;;;;;9.90;99.90;;;;;;5014869;28;19914;-67
2023/03/06 03:40:24;;;;;;;;;;;9.90;99.90;;;;;;5015326;28;20302;-69
2023/03/06 03:42:50;;;;;;;;;;;9.90;99.90;;;;;;5014855;28;19909;-66
2023/03/06 03:45:16;;;;;;;;;;;9.90;99.90;;;;;;5014988;28;19920;-69
2023/03/06 03:47:41;;;;;;;;;;;9.90;99.90;;;;;;5014542;28;19963;-64
2023/03/06 03:50:07;;;;;;;;;;;9.80;99.90;;;;;;5014179;28;20000;-68
2023/03/06 03:52:33;;;;;;;;;;;9.80;99.90;;;;;;5014650;28;20372;-68
2023/03/06 03:54:59;;;;;;;;;;;9.80;99.90;;;;;;5014371;28;19948;-68
2023/03/06 03:57:24;;;;;;;;;;;9.80;99.90;;;;;;5014514;28;19960;-68
2023/03/06 03:59:50;;;;;;;;;;;9.80;99.90;;;;;;5014388;28;20051;-68
2023/03/06 04:02:16;;;;;;;;;;;9.80;99.90;;;;;;5014526;28;19913;-66
2023/03/06 04:04:42;;;;;;;;;;;9.80;99.90;;;;;;5014604;28;19936;-68
2023/03/06 04:07:07;;;;;;;;;;;9.90;99.90;;;;;;5012797;28;20128;-65
2023/03/06 04:09:33;;;;;;;;;;;9.90;99.90;;;;;;5014520;28;20316;-69
2023/03/06 04:11:59;;;;;;;;;;;9.90;99.90;;;;;;5014125;28;19910;-69
2023/03/06 04:14:25;;;;;;;;;;;10.00;99.90;;;;;;5014119;28;19910;-65
2023/03/06 04:16:50;;;;;;;;;;;10.00;99.90;;;;;;5014281;28;19917;-69
2023/03/06 04:19:16;;;;;;;;;;;10.00;99.90;;;;;;5014167;28;20379;-68
2023/03/06 04:21:41;;;;;;;;;;;10.10;99.90;;;;;;5012641;28;19952;-68
2023/03/06 04:24:07;;;;;;;;;;;10.20;99.90;;;;;;5014176;28;20360;-68
2023/03/06 04:26:33;;;;;;;;;;;10.30;99.90;;;;;;5014223;28;19924;-68
2023/03/06 04:28:58;;;;;;;;;;;10.20;99.90;;;;;;5013940;28;19910;-70
2023/03/06 04:31:24;;;;;;;;;;;10.20;99.90;;;;;;5013912;28;19909;-69
2023/03/06 04:33:50;;;;;;;;;;;10.30;99.90;;;;;;5014071;28;19951;-69
2023/03/06 04:36:24;;;;;;;;;;;10.30;99.90;;;;;;5014577;28;20498;-68
2023/03/06 04:38:49;;;;;;;;;;;10.30;99.90;;;;;;5014462;28;19910;-66
2023/03/06 04:41:15;;;;;;;;;;;10.30;99.90;;;;;;5014387;28;20036;-68
2023/03/06 04:43:41;;;;;;;;;;;10.30;99.90;;;;;;5014248;28;19914;-69
2023/03/06 04:46:07;;;;;;;;;;;10.30;99.90;;;;;;5013776;28;20330;-69
2023/03/06 04:48:35;;;;;;;;;;;10.40;99.90;;;;;;5013747;28;19941;-68
2023/03/06 04:51:00;;;;;;;;;;;10.40;99.90;;;;;;5013615;28;20012;-70
2023/03/06 04:53:26;;;;;;;;;;;10.40;99.90;;;;;;5013565;28;19949;-69
2023/03/06 04:55:52;;;;;;;;;;;10.30;99.90;;;;;;5014143;28;19910;-68
2023/03/06 04:58:17;;;;;;;;;;;10.40;99.90;;;;;;5013520;28;20383;-69
2023/03/06 05:00:43;;;;;;;;;;;10.40;99.90;;;;;;5013740;28;19917;-68
2023/03/06 05:03:10;;;;;;;;;;;10.50;99.90;;;;;;5013358;28;19914;-69
2023/03/06 05:05:36;;;;;;;;;;;10.60;99.90;;;;;;5011954;28;19917;-69
2023/03/06 05:08:01;;;;;;;;;;;10.60;99.90;;;;;;5012620;28;20379;-70
2023/03/06 05:10:28;;;;;;;;;;;10.60;99.90;;;;;;5012698;28;19910;-69
2023/03/06 05:12:53;;;;;;;;;;;10.50;99.90;;;;;;5014100;28;20364;-68
2023/03/06 05:15:19;;;;;;;;;;;10.50;99.90;;;;;;5014006;28;19992;-66
2023/03/06 05:17:46;;;;;;;;;;;10.50;99.90;;;;;;5011679;28;19910;-68
2023/03/06 05:20:12;;;;;;;;;;;10.40;99.90;;;;;;5012505;28;19960;-68
2023/03/06 05:22:38;;;;;;;;;;;10.50;99.90;;;;;;5012108;28;19913;-68
2023/03/06 05:25:04;;;;;;;;;;;10.50;99.90;;;;;;5011936;28;20295;-68
2023/03/06 05:27:30;;;;;;;;;;;10.40;99.90;;;;;;5013300;28;19913;-69
2023/03/06 05:29:55;;;;;;;;;;;10.50;99.90;;;;;;5014325;28;20413;-69
2023/03/06 05:32:21;;;;;;;;;;;10.60;99.90;;;;;;5014432;28;19956;-69
2023/03/06 05:34:47;;;;;;;;;;;10.60;99.90;;;;;;5012997;28;19944;-69
2023/03/06 05:37:13;;;;;;;;;;;10.60;99.90;;;;;;5012252;28;19909;-70
2023/03/06 05:39:38;;;;;;;;;;;10.70;99.90;;;;;;5013235;28;20339;-68
2023/03/06 05:42:04;;;;;;;;;;;10.70;99.90;;;;;;5013482;28;20288;-68
2023/03/06 05:44:31;;;;;;;;;;;10.70;99.90;;;;;;5013168;28;20005;-68
2023/03/06 05:46:56;;;;;;;;;;;10.70;99.90;;;;;;5011915;28;20026;-66
2023/03/06 05:49:22;;;;;;;;;;;10.70;99.90;;;;;;5010238;28;20364;-67
2023/03/06 05:51:48;;;;;;;;;;;10.70;99.90;;;;;;5011162;28;19919;-69
2023/03/06 05:54:14;;;;;;;;;;;10.70;99.90;;;;;;5012549;28;19993;-69
2023/03/06 05:56:39;;;;;;;;;;;10.60;99.90;;;;;;5013084;28;20344;-67
2023/03/06 05:59:05;;;;;;;;;;;10.50;99.90;;;;;;5012639;28;19910;-69
2023/03/06 06:01:31;;;;;;;;;;;10.70;99.90;;;;;;5012419;28;19909;-69
2023/03/06 06:03:56;;;;;;;;;;;10.70;99.90;;;;;;5012772;28;19918;-69
2023/03/06 06:06:22;;;;;;;;;;;10.60;99.90;;;;;;5012877;28;19933;-69
2023/03/06 06:08:48;;;;;;;;;;;10.70;99.90;;;;;;5012706;28;20134;-67
2023/03/06 06:11:13;;;;;;;;;;;10.70;99.90;;;;;;5013007;28;19914;-68
2023/03/06 06:13:39;;;;;;;;;;;10.70;99.90;;;;;;5014604;28;19909;-68
2023/03/06 06:16:10;;;;;;;;;;;10.70;99.90;;;;;;5016557;28;19916;-68
2023/03/06 06:18:36;;;;;;;;;;;10.70;99.90;;;;;;5015949;28;19945;-69
2023/03/06 06:21:09;;;;;;;;;;;10.70;99.90;;;;;;5015785;28;19971;-69
2023/03/06 06:23:35;;;;;;;;;;;10.80;99.90;;;;;;5016307;28;19916;-68
2023/03/06 06:26:01;;;;;;;;;;;10.70;99.90;;;;;;5015892;28;19913;-69
2023/03/06 06:28:28;;;;;;;;;;;10.70;99.90;;;;;;5016163;28;19992;-71
2023/03/06 06:30:53;;;;;;;;;;;10.70;99.90;;;;;;5016244;28;20433;-72
2023/03/06 06:33:19;;;;;;;;;;;10.70;99.90;;;;;;5015921;28;19913;-69
2023/03/06 06:35:45;;;;;;;;;;;10.90;99.90;;;;;;5016055;28;19921;-69
2023/03/06 06:38:10;;;;;;;;;;;10.90;99.90;;;;;;5015691;28;19910;-68
2023/03/06 06:40:36;;;;;;;;;;;10.90;99.90;;;;;;5015816;28;19933;-69
2023/03/06 06:43:02;;;;;;;;;;;10.90;99.90;;;;;;5015784;28;19976;-68
2023/03/06 06:45:27;;;;;;;;;;;10.90;99.90;;;;;;5015744;28;19928;-69
2023/03/06 06:47:53;;;;;;;;;;;10.80;99.90;;;;;;5014260;28;19961;-67
2023/03/06 06:50:19;;;;;;;;;;;10.90;99.90;;;;;;5015447;28;19910;-68
2023/03/06 06:52:44;;;;;;;;;;;10.90;99.90;;;;;;5015612;28;19917;-69
2023/03/06 06:55:11;;;;;;;;;;;10.90;99.90;;;;;;5016159;28;20324;-68
2023/03/06 06:57:36;;;;;;;;;;;10.90;99.90;;;;;;5015883;28;19922;-68
2023/03/06 07:00:03;;;;;;;;;;;11.00;99.90;;;;;;5015527;28;19909;-68
2023/03/06 07:02:30;;;;;;;;;;;11.00;99.90;;;;;;5015477;28;20387;-70
2023/03/06 07:04:57;;;;;;;;;;;11.00;99.90;;;;;;5013977;28;19914;-69
2023/03/06 07:07:23;;;;;;;;;;;11.30;99.90;;;;;;5015307;28;19920;-68
2023/03/06 07:09:48;;;;;;;;;;;11.30;99.90;;;;;;5013718;28;20279;-68
2023/03/06 07:12:14;;;;;;;;;;;11.20;99.90;;;;;;5015213;28;19920;-68
2023/03/06 07:14:41;;;;;;;;;;;11.20;99.90;;;;;;5014974;28;19909;-69
2023/03/06 07:17:07;;;;;;;;;;;11.30;99.90;;;;;;5015411;28;20222;-68
2023/03/06 07:19:33;;;;;;;;;;;11.50;99.90;;;;;;5015373;28;19909;-68
2023/03/06 07:21:59;;;;;;;;;;;11.50;99.90;;;;;;5015232;28;20051;-69
2023/03/06 07:24:25;;;;;;;;;;;11.50;99.90;;;;;;5013428;28;20404;-69
2023/03/06 07:26:51;;;;;;;;;;;11.60;99.90;;;;;;5013858;28;19918;-69
2023/03/06 07:29:16;;;;;;;;;;;11.70;99.90;;;;;;5014731;28;19917;-69
2023/03/06 07:31:42;;;;;;;;;;;11.90;99.90;;;;;;5015180;28;19980;-69
2023/03/06 07:34:11;;;;;;;;;;;11.90;99.90;;;;;;5014610;28;20292;-68
2023/03/06 07:36:39;;;;;;;;;;;11.90;99.90;;;;;;5014871;28;19913;-71
2023/03/06 07:39:06;;;;;;;;;;;12.00;99.90;;;;;;5014810;28;20411;-69
2023/03/06 07:41:32;;;;;;;;;;;12.20;99.90;;;;;;5015206;28;20372;-69
2023/03/06 07:43:58;;;;;;;;;;;12.10;99.90;;;;;;5015272;28;19935;-69
2023/03/06 07:46:24;;;;;;;;;;;12.20;99.90;;;;;;5015053;28;20393;-69
2023/03/06 07:48:49;;;;;;;;;;;12.20;99.90;;;;;;5014985;28;19920;-66
2023/03/06 07:51:16;;;;;;;;;;;12.10;99.90;;;;;;5015197;28;20009;-68
2023/03/06 07:53:42;;;;;;;;;;;12.20;99.90;;;;;;5014682;28;20372;-69
2023/03/06 07:56:09;;;;;;;;;;;12.10;99.90;;;;;;5013417;28;19910;-69
2023/03/06 07:58:36;;;;;;;;;;;12.10;99.90;;;;;;5014266;28;19916;-69
2023/03/06 08:01:05;;;;;;;;;;;12.20;99.90;;;;;;5012800;28;19913;-69
2023/03/06 08:03:31;;;;;;;;;;;12.20;99.90;;;;;;5010048;28;20291;-67
2023/03/06 08:06:07;;;;;;;;;;;12.10;99.90;;;;;;5013851;28;20423;-69
2023/03/06 08:08:38;;;;;;;;;;;12.10;99.90;;;;;;5014397;28;19915;-67
2023/03/06 08:11:04;;;;;;;;;;;12.20;99.90;;;;;;5012243;28;19953;-68
2023/03/06 08:13:30;;;;;;;;;;;12.30;99.90;;;;;;5013604;28;19910;-68
2023/03/06 08:15:55;;;;;;;;;;;12.30;99.90;;;;;;5012059;28;21197;-69
2023/03/06 08:18:21;;;;;;;;;;;12.30;99.90;;;;;;5009703;28;20395;-70
2023/03/06 08:20:47;;;;;;;;;;;12.20;99.90;;;;;;5013299;28;19917;-69
2023/03/06 08:23:20;;;;;;;;;;;12.20;99.90;;;;;;5013516;28;20294;-69
2023/03/06 08:25:53;;;;;;;;;;;12.30;99.90;;;;;;5013547;28;19971;-69
2023/03/06 08:28:19;;;;;;;;;;;12.30;99.90;;;;;;5011878;28;19929;-70
2023/03/06 08:30:44;;;;;;;;;;;12.30;99.90;;;;;;5013236;28;19916;-69
2023/03/06 08:33:10;;;;;;;;;;;12.40;99.90;;;;;;5013978;28;19935;-69
2023/03/06 08:35:36;;;;;;;;;;;12.30;99.90;;;;;;5013720;28;20303;-69
2023/03/06 08:38:02;;;;;;;;;;;12.20;99.90;;;;;;5012510;28;19925;-69
2023/03/06 08:40:29;;;;;;;;;;;12.20;99.90;;;;;;5011852;28;20015;-69
2023/03/06 08:42:55;;;;;;;;;;;12.20;99.90;;;;;;5013935;28;19948;-69
2023/03/06 08:45:20;;;;;;;;;;;12.20;99.90;;;;;;5013851;28;19917;-69
2023/03/06 08:47:46;;;;;;;;;;;12.20;99.90;;;;;;5013534;28;19964;-71
2023/03/06 08:50:12;;;;;;;;;;;12.20;99.90;;;;;;5013499;28;19909;-69
2023/03/06 08:52:38;;;;;;;;;;;12.20;99.90;;;;;;5011585;28;20291;-70
2023/03/06 08:55:04;;;;;;;;;;;12.20;99.90;;;;;;5013012;28;19973;-70
2023/03/06 08:57:29;;;;;;;;;;;12.10;99.90;;;;;;5004575;28;19992;-70
2023/03/06 08:59:55;;;;;;;;;;;12.10;99.90;;;;;;5011924;28;19944;-70
2023/03/06 09:02:28;;;;;;;;;;;12.10;99.90;;;;;;5013049;28;19916;-70
2023/03/06 09:04:54;;;;;;;;;;;12.30;99.90;;;;;;5013277;28;19916;-70
2023/03/06 09:07:20;;;;;;;;;;;12.30;99.90;;;;;;5013684;28;19913;-70
2023/03/06 09:09:45;;;;;;;;;;;12.40;99.90;;;;;;5013304;28;19920;-70
2023/03/06 09:12:11;;;;;;;;;;;12.40;99.90;;;;;;5013405;28;19955;-71
2023/03/06 09:14:37;;;;;;;;;;;12.40;99.90;;;;;;5013823;28;19909;-70
2023/03/06 09:17:02;;;;;;;;;;;12.60;99.90;;;;;;5013085;28;19917;-70
2023/03/06 09:19:28;;;;;;;;;;;12.70;99.90;;;;;;5013428;28;19916;-70
2023/03/06 09:21:56;;;;;;;;;;;12.70;99.90;;;;;;5014604;28;20032;-71
2023/03/06 09:24:22;;;;;;;;;;;12.70;99.90;;;;;;5013720;28;19917;-70
2023/03/06 09:26:47;;;;;;;;;;;12.70;99.90;;;;;;5013689;28;19914;-69
2023/03/06 09:29:15;;;;;;;;;;;12.70;99.90;;;;;;5011876;28;20387;-70
2023/03/06 09:31:40;;;;;;;;;;;12.70;99.90;;;;;;5011817;28;19921;-71
2023/03/06 09:34:06;;;;;;;;;;;12.60;99.90;;;;;;5012814;28;19917;-70
2023/03/06 09:36:32;;;;;;;;;;;12.60;99.90;;;;;;5013234;28;19914;-70
2023/03/06 09:38:57;;;;;;;;;;;12.60;99.90;;;;;;5013027;28;19913;-71
2023/03/06 09:41:23;;;;;;;;;;;12.60;99.90;;;;;;5012935;28;19921;-70
2023/03/06 09:43:51;;;;;;;;;;;12.70;99.90;;;;;;5013242;28;20395;-70
2023/03/06 09:46:32;;;;;;;;;;;12.80;99.90;;;;;;5013624;28;19960;-70
2023/03/06 09:49:09;;;;;;;;;;;12.70;99.90;;;;;;5016334;28;19945;-71
2023/03/06 09:51:58;;;;;;;;;;;12.70;99.90;;;;;;5018280;28;19936;-70
2023/03/06 09:54:44;;;;;;;;;;;12.70;99.90;;;;;;4980689;28;19945;-70
2023/03/06 09:57:34;;;;;;;;;;;12.90;99.90;;;;;;5032336;28;19915;-70
2023/03/06 10:00:01;;;;;;;;;;;12.80;99.90;;;;;;5005814;28;19909;-70
2023/03/06 10:02:29;;;;;;;;;;;12.90;99.90;;;;;;5016122;28;19968;-70
2023/03/06 10:04:59;;;;;;;;;;;12.90;99.90;;;;;;5016195;28;19972;-71
2023/03/06 10:07:45;;;;;;;;;;;12.90;99.90;;;;;;5015898;28;19917;-70
2023/03/06 10:10:16;;;;;;;;;;;12.90;99.90;;;;;;4975218;28;19964;-71
2023/03/06 10:12:47;;;;;;;;;;;12.90;99.90;;;;;;5016617;28;20282;-70
2023/03/06 10:15:17;;;;;;;;;;;13.00;99.90;;;;;;5016891;28;19916;-70
2023/03/06 10:17:42;;;;;;;;;;;13.10;99.90;;;;;;5016108;28;20411;-71
2023/03/06 10:20:16;;;;;;;;;;;13.20;99.90;;;;;;5016937;28;19941;-70
2023/03/06 10:22:52;;;;;;;;;;;13.30;99.90;;;;;;5016301;28;19999;-70
2023/03/06 10:25:30;;;;;;;;;;;13.40;99.90;;;;;;5015581;28;20331;-71
2023/03/06 10:27:59;;;;;;;;;;;13.60;99.90;;;;;;5016217;28;19921;-70
2023/03/06 10:30:37;;;;;;;;;;;13.70;99.90;;;;;;5014652;28;20453;-70
2023/03/06 10:33:22;;;;;;;;;;;13.70;99.90;;;;;;5015947;28;20137;-70
2023/03/06 10:35:47;;;;;;;;;;;13.70;99.90;;;;;;5015631;28;19909;-71
2023/03/06 10:38:26;;;;;;;;;;;13.70;99.90;;;;;;5015967;28;19916;-70
2023/03/06 10:41:15;;;;;;;;;;;13.70;99.90;;;;;;5015919;28;19917;-70
2023/03/06 10:43:43;;;;;;;;;;;13.70;99.90;;;;;;5014612;28;19913;-70
2023/03/06 10:46:13;;;;;;;;;;;13.60;99.90;;;;;;5015053;28;20038;-70
2023/03/06 10:48:40;;;;;;;;;;;13.60;99.90;;;;;;5014571;28;20040;-71
2023/03/06 10:51:23;;;;;;;;;;;13.40;99.90;;;;;;5015785;28;19910;-70
2023/03/06 10:53:57;;;;;;;;;;;13.30;99.90;;;;;;5016588;28;19936;-70
2023/03/06 10:56:28;;;;;;;;;;;13.20;99.90;;;;;;5017216;28;19932;-70
2023/03/06 10:59:28;;;;;;;;;;;13.20;99.90;;;;;;5014711;28;20383;-70
2023/03/06 11:02:00;;;;;;;;;;;13.00;99.90;;;;;;4978124;28;19910;-70
2023/03/06 11:04:28;;;;;;;;;;;13.10;99.90;;;;;;5015179;28;19910;-70
2023/03/06 11:07:07;;;;;;;;;;;13.00;99.90;;;;;;5015317;28;19913;-69
2023/03/06 11:09:32;;;;;;;;;;;13.00;99.90;;;;;;5015676;28;19916;-70
2023/03/06 11:12:13;;;;;;;;;;;13.10;99.90;;;;;;5015979;28;20041;-68
2023/03/06 11:14:39;;;;;;;;;;;13.20;99.90;;;;;;5015588;28;20303;-70
2023/03/06 11:17:24;;;;;;;;;;;13.30;99.90;;;;;;5015314;28;20185;-70
2023/03/06 11:19:50;;;;;;;;;;;13.30;99.90;;;;;;5015321;28;20298;-70
2023/03/06 11:22:17;;;;;;;;;;;13.30;99.90;;;;;;5014963;28;19909;-70
2023/03/06 11:24:45;;;;;;;;;;;13.30;99.90;;;;;;5014943;28;19913;-68
2023/03/06 11:27:21;;;;;;;;;;;13.40;99.90;;;;;;5014868;28;19921;-71
2023/03/06 11:29:50;;;;;;;;;;;13.40;99.90;;;;;;5015056;28;20383;-70
2023/03/06 11:32:30;;;;;;;;;;;13.40;99.90;;;;;;5014906;28;19944;-70
2023/03/06 11:34:58;;;;;;;;;;;13.40;99.90;;;;;;5015373;28;20035;-70
2023/03/06 11:37:38;;;;;;;;;;;13.40;99.90;;;;;;5015407;28;19913;-70
2023/03/06 11:40:10;;;;;;;;;;;13.40;99.90;;;;;;5013939;28;20386;-70
2023/03/06 11:42:42;;;;;;;;;;;13.30;99.90;;;;;;5015296;28;20308;-70
2023/03/06 11:45:28;;;;;;;;;;;13.30;99.90;;;;;;5013414;28;19971;-70
2023/03/06 11:48:00;;;;;;;;;;;13.20;99.90;;;;;;5014769;28;20387;-70
2023/03/06 11:50:42;;;;;;;;;;;13.10;99.90;;;;;;5014927;28;20028;-70
2023/03/06 11:53:13;;;;;;;;;;;13.00;99.90;;;;;;5014703;28;19916;-70
2023/03/06 11:55:44;;;;;;;;;;;12.90;99.90;;;;;;5014619;28;19955;-70
2023/03/06 11:58:20;;;;;;;;;;;12.90;99.90;;;;;;5014461;28;20295;-70
2023/03/06 12:00:46;;;;;;;;;;;12.80;99.90;;;;;;5014499;28;19918;-70
2023/03/06 12:03:29;;;;;;;;;;;12.70;99.90;;;;;;5014570;28;20000;-71
2023/03/06 12:06:09;;;;;;;;;;;12.70;99.90;;;;;;5014495;28;20317;-70
2023/03/06 12:08:47;;;;;;;;;;;12.60;99.90;;;;;;5013122;28;20010;-70
2023/03/06 12:11:23;;;;;;;;;;;12.40;99.90;;;;;;5014082;28;20055;-71
2023/03/06 12:14:07;;;;;;;;;;;12.30;99.90;;;;;;5013969;28;19917;-69
2023/03/06 12:16:51;;;;;;;;;;;12.30;99.90;;;;;;5013923;28;19916;-69
2023/03/06 12:19:20;;;;;;;;;;;12.20;99.90;;;;;;5013698;28;19960;-69
2023/03/06 12:22:11;;;;;;;;;;;12.20;99.90;;;;;;5014133;28;19932;-69
2023/03/06 12:24:55;;;;;;;;;;;12.10;99.90;;;;;;4983103;28;19914;-69
2023/03/06 12:27:44;;;;;;;;;;;12.20;99.90;;;;;;5013517;28;19917;-69
2023/03/06 12:30:29;;;;;;;;;;;12.20;99.90;;;;;;5003053;28;19910;-70
2023/03/06 12:33:21;;;;;;;;;;;12.10;99.90;;;;;;5013952;28;19909;-69
2023/03/06 12:35:47;;;;;;;;;;;12.10;99.90;;;;;;5009765;28;20183;-69
2023/03/06 12:38:15;;;;;;;;;;;12.10;99.90;;;;;;5013136;28;19910;-75
2023/03/06 12:40:44;;;;;;;;;;;12.10;99.90;;;;;;5013519;28;19929;-69
2023/03/06 12:43:19;;;;;;;;;;;12.10;99.90;;;;;;5013164;28;19909;-69
2023/03/06 12:45:45;;;;;;;;;;;12.10;99.90;;;;;;5013426;28;19909;-70
2023/03/06 12:48:17;;;;;;;;;;;12.10;99.90;;;;;;5012096;28;19960;-70
2023/03/06 12:50:43;;;;;;;;;;;12.10;99.90;;;;;;5012002;28;19909;-69
2023/03/06 12:53:13;;;;;;;;;;;12.00;99.90;;;;;;5013231;28;19910;-69
2023/03/06 12:55:40;;;;;;;;;;;11.90;99.90;;;;;;5013312;28;19910;-69
2023/03/06 12:58:25;;;;;;;;;;;11.80;99.90;;;;;;5012655;28;19917;-68
2023/03/06 13:00:56;;;;;;;;;;;11.70;99.90;;;;;;5013780;28;20103;-68
2023/03/06 13:03:22;;;;;;;;;;;11.70;99.90;;;;;;5012079;28;19928;-70
2023/03/06 13:05:55;;;;;;;;;;;11.60;99.90;;;;;;5013261;28;19992;-69
2023/03/06 13:08:33;;;;;;;;;;;11.50;99.90;;;;;;5013033;28;19949;-68
2023/03/06 13:11:05;;;;;;;;;;;11.50;99.90;;;;;;5012092;28;19910;-69
2023/03/06 13:13:44;;;;;;;;;;;11.60;99.90;;;;;;5013599;28;20294;-71
2023/03/06 13:16:12;;;;;;;;;;;11.60;99.90;;;;;;5013336;28;20322;-69
2023/03/06 13:18:37;;;;;;;;;;;11.60;99.90;;;;;;5012366;28;20008;-69
2023/03/06 13:21:03;;;;;;;;;;;11.60;99.90;;;;;;5013852;28;20442;-69
2023/03/06 13:23:29;;;;;;;;;;;11.60;99.90;;;;;;5015026;28;20407;-68
2023/03/06 13:25:56;;;;;;;;;;;11.70;99.90;;;;;;5017675;28;19917;-72
2023/03/06 13:28:24;;;;;;;;;;;11.80;99.90;;;;;;5017433;28;19976;-69
2023/03/06 13:30:50;;;;;;;;;;;11.70;99.90;;;;;;5017476;28;20308;-69
2023/03/06 13:33:35;;;;;;;;;;;11.70;99.90;;;;;;5017049;28;19916;-68
2023/03/06 13:36:20;;;;;;;;;;;11.70;99.90;;;;;;5017365;28;19916;-69
2023/03/06 13:38:48;;;;;;;;;;;11.60;99.90;;;;;;5017035;28;19913;-69
2023/03/06 13:41:26;;;;;;;;;;;11.70;99.90;;;;;;5016699;28;20327;-69
2023/03/06 13:43:59;;;;;;;;;;;11.60;99.90;;;;;;5017532;28;19913;-71
2023/03/06 13:46:25;;;;;;;;;;;11.70;99.90;;;;;;5017013;28;19917;-70
2023/03/06 13:49:04;;;;;;;;;;;11.60;99.90;;;;;;5016385;28;20279;-69
2023/03/06 13:51:34;;;;;;;;;;;11.50;99.90;;;;;;5016722;28;20307;-69
2023/03/06 13:54:19;;;;;;;;;;;11.50;99.90;;;;;;5016666;28;19956;-69
2023/03/06 13:56:47;;;;;;;;;;;11.40;99.90;;;;;;5015249;28;20005;-69
2023/03/06 13:59:22;;;;;;;;;;;11.50;99.90;;;;;;5015995;28;19945;-68
2023/03/06 14:02:16;;;;;;;;;;;11.60;99.90;;;;;;5016049;28;20326;-69
2023/03/06 14:04:52;;;;;;;;;;;11.70;99.90;;;;;;5016190;28;19916;-69
2023/03/06 14:07:36;;;;;;;;;;;11.80;99.90;;;;;;5015398;28;19913;-69
2023/03/06 14:10:09;;;;;;;;;;;11.70;99.90;;;;;;5016189;28;19916;-69
2023/03/06 14:12:36;;;;;;;;;;;11.70;99.90;;;;;;5014354;28;20429;-69
2023/03/06 14:15:04;;;;;;;;;;;11.70;99.90;;;;;;5016081;28;19910;-69
2023/03/06 14:17:36;;;;;;;;;;;11.70;99.90;;;;;;5016035;28;19961;-69
2023/03/06 14:20:11;;;;;;;;;;;11.70;99.90;;;;;;5016247;28;19971;-69
2023/03/06 14:22:36;;;;;;;;;;;11.70;99.90;;;;;;5015961;28;19952;-69
2023/03/06 14:25:06;;;;;;;;;;;11.80;99.90;;;;;;5016329;28;19909;-69
2023/03/06 14:27:41;;;;;;;;;;;11.80;99.90;;;;;;5015417;28;19920;-71
2023/03/06 14:30:07;;;;;;;;;;;11.80;99.90;;;;;;5016143;28;20404;-70
2023/03/06 14:32:33;;;;;;;;;;;11.90;99.90;;;;;;5016280;28;20202;-70